Sylvania Township, Ohio
Current Conditions -  °F | °C
As of 1:52 PM on Sunday 23 Nov 2014 (Local Time) from KTOL Reporting Station
Clear Clear  
Wind Chill: 57°   Ceiling: Unl
Heat Index: 57°   Visibility: 10mi
Dew Point: 47°   Wind: 12mph
Humidity: 69%   Direction: 140°SE
Pressure: 29.76"   Gusts: 16mph
Location:  41.6632°N, 83.7323°W
Report Text: KTOL 231852Z 14010G14KT 10SM CLR 14/08 A2976 RMK AO2 SLP077 T01390083
Loading
Personal Weather Stations






























Interactive Weather Map New forecast layout! Learn more

10-Day Weather Forecast

Advertisements
Track Severe Weather on mobile